createdAt,value
2017-11-14T00:01:54.810Z,1.37
2017-11-14T00:04:23.908Z,1.33
2017-11-14T00:06:53.005Z,1.67
2017-11-14T00:09:22.101Z,1.60
2017-11-14T00:11:51.207Z,1.50
2017-11-14T00:14:20.318Z,1.30
2017-11-14T00:16:49.408Z,1.40
2017-11-14T00:19:18.496Z,1.23
2017-11-14T00:21:47.594Z,1.30
2017-11-14T00:24:16.715Z,1.13
2017-11-14T00:26:45.811Z,1.30
2017-11-14T00:29:14.893Z,1.37
2017-11-14T00:31:44.000Z,1.37
2017-11-14T00:34:13.102Z,1.00
2017-11-14T00:36:42.197Z,1.10
2017-11-14T00:39:11.292Z,1.33
2017-11-14T00:41:40.387Z,1.40
2017-11-14T00:44:09.486Z,1.20
2017-11-14T00:46:38.583Z,1.13
2017-11-14T00:49:07.678Z,1.33
2017-11-14T00:51:36.798Z,1.20
2017-11-14T00:54:05.904Z,1.40
2017-11-14T00:56:34.989Z,1.20
2017-11-14T00:59:04.090Z,1.60
2017-11-14T01:01:33.208Z,1.40
2017-11-14T01:04:02.289Z,1.30
2017-11-14T01:06:31.391Z,1.47
2017-11-14T01:09:00.479Z,1.47
2017-11-14T01:11:29.568Z,1.60
2017-11-14T01:13:58.690Z,1.20
2017-11-14T01:16:27.782Z,1.20
2017-11-14T01:18:56.879Z,1.07
2017-11-14T01:21:25.975Z,1.60
2017-11-14T01:23:55.068Z,1.27
2017-11-14T01:26:24.165Z,1.20
2017-11-14T01:28:53.251Z,1.30
2017-11-14T01:31:22.357Z,1.33
2017-11-14T01:33:51.440Z,1.37
2017-11-14T01:36:20.565Z,1.10
2017-11-14T01:38:49.682Z,1.47
2017-11-14T01:41:18.798Z,1.80
2017-11-14T01:43:47.867Z,1.87
2017-11-14T01:46:16.977Z,1.30
2017-11-14T01:48:46.078Z,1.37
2017-11-14T01:51:15.176Z,2.33
2017-11-14T01:53:44.287Z,1.80
2017-11-14T01:56:13.395Z,1.83
2017-11-14T01:58:42.497Z,1.40
2017-11-14T02:01:11.608Z,1.37
2017-11-14T02:03:40.700Z,1.50
2017-11-14T02:06:09.803Z,1.47
2017-11-14T02:08:38.910Z,1.70
2017-11-14T02:11:08.012Z,1.10
2017-11-14T02:13:37.104Z,1.50
2017-11-14T02:16:06.200Z,1.37
2017-11-14T02:18:35.290Z,1.73
2017-11-14T02:21:04.387Z,1.37
2017-11-14T02:23:33.486Z,1.40
2017-11-14T02:26:02.593Z,1.47
2017-11-14T02:28:31.692Z,1.60
2017-11-14T02:31:00.782Z,1.47
2017-11-14T02:33:29.872Z,1.20
2017-11-14T02:35:58.961Z,1.37
2017-11-14T02:38:28.057Z,1.40
2017-11-14T02:40:57.150Z,1.43
2017-11-14T02:43:26.251Z,1.67
2017-11-14T02:45:55.345Z,1.50
2017-11-14T02:48:24.451Z,1.67
2017-11-14T02:50:53.568Z,1.80
2017-11-14T02:54:11.859Z,2.00
2017-11-14T02:56:40.967Z,1.67
2017-11-14T02:59:10.828Z,1.70
2017-11-14T03:01:39.921Z,1.93
2017-11-14T03:04:09.000Z,1.37
2017-11-14T03:06:38.128Z,1.33
2017-11-14T03:09:07.238Z,1.40
2017-11-14T03:11:36.345Z,1.30
2017-11-14T03:14:05.454Z,1.20
2017-11-14T03:16:34.538Z,1.37
2017-11-14T03:19:03.633Z,1.63
2017-11-14T03:21:32.737Z,1.23
2017-11-14T03:24:01.834Z,2.10
2017-11-14T03:26:30.918Z,1.57
2017-11-14T03:29:00.025Z,1.53
2017-11-14T03:31:29.126Z,1.50
2017-11-14T03:33:58.222Z,1.40
2017-11-14T03:36:27.299Z,1.30
2017-11-14T03:38:56.434Z,1.77
2017-11-14T03:41:25.516Z,1.50
2017-11-14T03:43:54.600Z,1.23
2017-11-14T03:46:23.711Z,1.93
2017-11-14T03:48:52.793Z,1.70
2017-11-14T03:51:21.883Z,1.40
2017-11-14T03:53:50.981Z,1.40
2017-11-14T03:56:20.086Z,1.50
2017-11-14T03:58:49.179Z,1.80
2017-11-14T04:01:18.278Z,1.70
2017-11-14T04:03:47.361Z,1.50
2017-11-14T04:06:16.471Z,1.60
2017-11-14T04:08:45.575Z,1.80
2017-11-14T04:11:14.672Z,1.87
2017-11-14T04:13:43.751Z,1.93
2017-11-14T04:16:12.852Z,1.73
2017-11-14T04:18:41.941Z,1.63
2017-11-14T04:21:11.040Z,2.03
2017-11-14T04:23:40.147Z,1.60
2017-11-14T04:26:09.244Z,1.40
2017-11-14T04:28:38.341Z,2.00
2017-11-14T04:31:07.421Z,1.80
2017-11-14T04:33:36.530Z,1.83
2017-11-14T04:36:05.619Z,1.90
2017-11-14T04:38:34.717Z,1.83
2017-11-14T04:41:03.805Z,1.50
2017-11-14T04:43:32.896Z,2.10
2017-11-14T04:46:02.004Z,1.90
2017-11-14T04:48:31.094Z,1.50
2017-11-14T04:51:00.187Z,1.70
2017-11-14T04:53:29.329Z,2.33
2017-11-14T04:55:58.425Z,1.60
2017-11-14T04:58:27.507Z,2.17
2017-11-14T05:00:56.584Z,2.13
2017-11-14T05:03:25.708Z,1.80
2017-11-14T05:05:54.789Z,1.90
2017-11-14T05:08:23.890Z,1.50
2017-11-14T05:10:52.984Z,1.87
2017-11-14T05:13:22.078Z,1.60
2017-11-14T05:15:51.202Z,1.50
2017-11-14T05:18:20.302Z,1.20
2017-11-14T05:20:49.395Z,1.40
2017-11-14T05:23:18.500Z,1.77
2017-11-14T05:25:47.607Z,1.60
2017-11-14T05:28:16.718Z,1.30
2017-11-14T05:30:45.819Z,1.40
2017-11-14T05:33:14.913Z,1.80
2017-11-14T05:35:44.019Z,1.40
2017-11-14T05:38:13.135Z,1.40
2017-11-14T05:40:42.250Z,1.67
2017-11-14T05:43:11.363Z,1.40
2017-11-14T05:45:40.477Z,1.47
2017-11-14T05:48:09.567Z,1.50
2017-11-14T05:50:38.685Z,1.50
2017-11-14T05:53:07.780Z,1.43
2017-11-14T05:55:36.886Z,1.57
2017-11-14T05:58:05.998Z,1.60
2017-11-14T06:00:35.093Z,1.43
2017-11-14T06:03:04.170Z,1.63
2017-11-14T06:05:33.311Z,1.30
2017-11-14T06:08:02.418Z,1.40
2017-11-14T06:10:31.542Z,1.57
2017-11-14T06:13:00.683Z,1.27
2017-11-14T06:15:29.757Z,1.40
2017-11-14T06:17:58.851Z,1.77
2017-11-14T06:20:27.946Z,1.30
2017-11-14T06:22:57.039Z,1.23
2017-11-14T06:25:26.608Z,1.17
2017-11-14T06:27:55.702Z,1.30
2017-11-14T06:30:24.814Z,1.87
2017-11-14T06:32:53.913Z,1.30
2017-11-14T06:35:23.023Z,1.47
2017-11-14T06:37:52.120Z,1.70
2017-11-14T06:40:21.224Z,1.57
2017-11-14T06:42:50.324Z,1.53
2017-11-14T06:45:19.431Z,1.70
2017-11-14T06:47:48.515Z,1.47
2017-11-14T06:52:57.381Z,1.53
2017-11-14T06:55:26.522Z,1.77
2017-11-14T06:57:55.644Z,1.80
2017-11-14T07:00:24.738Z,1.60
2017-11-14T07:02:53.839Z,1.23
2017-11-14T07:05:22.937Z,1.53
2017-11-14T07:07:52.016Z,1.70
2017-11-14T07:10:21.119Z,1.50
2017-11-14T07:12:50.224Z,1.90
2017-11-14T07:15:19.311Z,1.90
2017-11-14T07:17:48.420Z,1.70
2017-11-14T07:20:17.513Z,1.70
2017-11-14T07:22:46.608Z,1.73
2017-11-14T07:25:15.696Z,1.50
2017-11-14T07:27:44.822Z,1.77
2017-11-14T07:30:13.897Z,2.00
2017-11-14T07:32:42.977Z,1.90
2017-11-14T07:35:12.089Z,2.70
2017-11-14T07:37:41.179Z,2.07
2017-11-14T07:40:10.266Z,1.60
2017-11-14T07:42:39.355Z,1.40
2017-11-14T07:45:08.459Z,1.83
2017-11-14T07:47:38.163Z,1.77
2017-11-14T07:50:07.280Z,2.00
2017-11-14T07:52:36.372Z,1.87
2017-11-14T07:55:05.463Z,1.97
2017-11-14T07:57:34.561Z,1.70
2017-11-14T08:00:03.667Z,1.63
2017-11-14T08:02:32.755Z,1.80
2017-11-14T08:05:01.855Z,1.33
2017-11-14T08:07:30.951Z,1.83
2017-11-14T08:10:00.057Z,2.03
2017-11-14T08:12:29.141Z,1.67
2017-11-14T08:14:58.220Z,1.73
2017-11-14T08:17:27.315Z,1.73
2017-11-14T08:19:56.407Z,1.67
2017-11-14T08:24:22.376Z,1.60
2017-11-14T08:26:51.528Z,2.07
2017-11-14T08:29:20.606Z,1.90
2017-11-14T08:31:49.718Z,2.43
2017-11-14T08:34:18.820Z,1.90
2017-11-14T08:36:47.920Z,1.70
2017-11-14T08:39:17.016Z,2.20
2017-11-14T08:41:46.123Z,2.23
2017-11-14T08:44:15.213Z,2.47
2017-11-14T08:46:44.321Z,1.63
2017-11-14T08:50:23.805Z,2.00
2017-11-14T08:52:53.236Z,1.87
2017-11-14T08:55:22.323Z,1.60
2017-11-14T08:57:51.415Z,2.43
2017-11-14T09:00:20.532Z,2.43
2017-11-14T09:02:49.626Z,2.07
2017-11-14T09:05:18.739Z,2.30
2017-11-14T09:07:47.833Z,2.20
2017-11-14T09:10:16.928Z,1.83
2017-11-14T09:12:46.026Z,2.17
2017-11-14T09:15:15.124Z,2.23
2017-11-14T09:17:44.224Z,1.93
2017-11-14T09:20:13.296Z,2.43
2017-11-14T09:22:42.400Z,2.40
2017-11-14T09:25:11.504Z,2.63
2017-11-14T09:27:40.599Z,2.60
2017-11-14T09:30:09.687Z,2.47
2017-11-14T09:32:38.789Z,2.27
2017-11-14T09:35:07.894Z,3.57
2017-11-14T09:37:37.007Z,2.57
2017-11-14T09:40:06.101Z,2.67
2017-11-14T09:42:35.190Z,3.13
2017-11-14T09:45:04.289Z,2.57
2017-11-14T09:47:33.376Z,3.27
2017-11-14T09:50:02.486Z,3.57
2017-11-14T09:52:31.569Z,3.63
2017-11-14T09:55:00.659Z,3.20
2017-11-14T09:57:29.747Z,2.70
2017-11-14T10:04:25.135Z,3.70
2017-11-14T10:06:54.228Z,2.90
2017-11-14T10:09:23.344Z,3.47
2017-11-14T10:11:52.446Z,3.27
2017-11-14T10:14:21.549Z,3.50
2017-11-14T10:16:50.637Z,3.40
2017-11-14T10:19:19.750Z,2.90
2017-11-14T10:21:48.855Z,4.73
2017-11-14T10:24:17.949Z,3.10
2017-11-14T10:26:47.054Z,3.73
2017-11-14T10:29:16.147Z,3.20
2017-11-14T10:31:45.248Z,2.97
2017-11-14T10:34:14.332Z,2.97
2017-11-14T10:36:43.426Z,3.50
2017-11-14T10:39:12.526Z,2.73
2017-11-14T10:41:41.621Z,3.17
2017-11-14T10:44:10.724Z,2.80
2017-11-14T10:46:39.808Z,3.20
2017-11-14T10:49:08.902Z,3.10
2017-11-14T10:51:37.987Z,2.97
2017-11-14T10:54:07.100Z,3.00
2017-11-14T10:56:36.202Z,2.60
2017-11-14T10:59:05.297Z,3.50
2017-11-14T11:01:34.398Z,3.17
2017-11-14T11:04:03.506Z,2.97
2017-11-14T11:06:32.597Z,3.50
2017-11-14T11:09:01.694Z,2.43
2017-11-14T11:11:30.905Z,3.40
2017-11-14T11:13:59.988Z,3.60
2017-11-14T11:16:31.937Z,3.83
2017-11-14T11:19:01.064Z,2.70
2017-11-14T11:21:30.152Z,3.47
2017-11-14T11:23:59.240Z,2.77
2017-11-14T11:26:28.333Z,2.83
2017-11-14T11:28:57.434Z,3.27
2017-11-14T11:31:26.552Z,4.87
2017-11-14T11:33:55.661Z,3.40
2017-11-14T11:36:24.762Z,2.73
2017-11-14T11:38:53.873Z,3.17
2017-11-14T11:41:22.955Z,3.37
2017-11-14T11:43:52.059Z,3.37
2017-11-14T11:46:21.180Z,3.47
2017-11-14T11:48:50.290Z,3.93
2017-11-14T11:51:19.367Z,3.20
2017-11-14T11:53:48.466Z,3.57
2017-11-14T11:56:17.572Z,4.27
2017-11-14T11:58:46.647Z,3.43
2017-11-14T12:03:48.525Z,2.20
2017-11-14T12:06:17.685Z,3.13
2017-11-14T12:08:46.790Z,3.77
2017-11-14T12:11:15.888Z,2.60
2017-11-14T12:13:44.985Z,2.13
2017-11-14T12:16:14.083Z,2.57
2017-11-14T12:18:43.185Z,2.37
2017-11-14T12:21:12.291Z,2.40
2017-11-14T12:23:41.392Z,2.43
2017-11-14T12:26:10.479Z,2.57
2017-11-14T12:28:39.577Z,1.93
2017-11-14T12:31:08.681Z,2.13
2017-11-14T12:33:37.821Z,2.10
2017-11-14T12:36:06.912Z,1.93
2017-11-14T12:38:36.026Z,2.13
2017-11-14T12:41:05.141Z,7.67
2017-11-14T12:43:34.225Z,2.10
2017-11-14T12:46:03.339Z,2.00
2017-11-14T12:48:33.172Z,1.77
2017-11-14T12:51:02.290Z,1.87
2017-11-14T12:53:31.385Z,1.80
2017-11-14T12:56:00.496Z,1.80
2017-11-14T12:58:29.585Z,1.50
2017-11-14T13:00:58.689Z,1.67
2017-11-14T13:03:27.787Z,1.63
2017-11-14T13:05:56.886Z,1.70
2017-11-14T13:08:25.983Z,2.27
2017-11-14T13:10:55.087Z,1.50
2017-11-14T13:13:24.182Z,1.77
2017-11-14T13:18:56.228Z,1.63
2017-11-14T13:21:25.331Z,1.73
2017-11-14T13:23:54.464Z,1.80
2017-11-14T13:26:23.556Z,1.47
2017-11-14T13:30:43.276Z,1.60
2017-11-14T13:33:12.372Z,1.67
2017-11-14T13:35:41.476Z,1.50
2017-11-14T13:38:10.570Z,1.67
2017-11-14T13:40:39.679Z,1.40
2017-11-14T13:43:09.078Z,1.43
2017-11-14T13:45:38.182Z,1.60
2017-11-14T13:48:07.283Z,1.50
2017-11-14T13:50:36.377Z,1.50
2017-11-14T13:53:05.476Z,1.63
2017-11-14T13:55:34.585Z,1.57
2017-11-14T13:58:03.692Z,1.47
2017-11-14T14:00:32.781Z,1.70
2017-11-14T14:03:01.864Z,1.77
2017-11-14T14:05:30.969Z,1.90
2017-11-14T14:08:00.079Z,2.03
2017-11-14T14:10:29.194Z,1.57
2017-11-14T14:12:58.305Z,1.83
2017-11-14T14:15:27.453Z,1.70
2017-11-14T14:17:56.567Z,1.63
2017-11-14T14:20:25.653Z,1.93
2017-11-14T14:22:54.771Z,1.70
2017-11-14T14:25:23.886Z,2.03
2017-11-14T14:27:52.985Z,1.73
2017-11-14T14:30:22.086Z,2.40
2017-11-14T14:33:00.044Z,2.40
2017-11-14T14:35:29.174Z,2.73
2017-11-14T14:37:58.287Z,2.40
2017-11-14T14:40:27.403Z,1.70
2017-11-14T14:42:56.497Z,2.07
2017-11-14T14:45:25.604Z,2.50
2017-11-14T14:47:54.687Z,1.90
2017-11-14T14:50:23.783Z,2.40
2017-11-14T14:52:52.878Z,2.50
2017-11-14T14:55:21.996Z,2.67
2017-11-14T14:57:51.081Z,2.27
2017-11-14T15:00:20.194Z,2.80
2017-11-14T15:02:49.295Z,3.75
2017-11-14T15:05:18.403Z,3.20
2017-11-14T15:07:47.506Z,2.43
2017-11-14T15:10:16.600Z,3.20
2017-11-14T15:12:45.679Z,3.17
2017-11-14T15:15:14.776Z,3.23
2017-11-14T15:18:28.805Z,2.63
2017-11-14T15:20:57.892Z,2.97
2017-11-14T15:23:27.001Z,3.20
2017-11-14T15:25:56.105Z,3.58
2017-11-14T15:28:25.192Z,3.17
2017-11-14T15:30:54.956Z,3.40
2017-11-14T15:33:24.083Z,3.60
2017-11-14T15:35:56.984Z,3.33
2017-11-14T15:38:27.932Z,3.57
2017-11-14T15:40:57.208Z,3.33
2017-11-14T15:43:26.385Z,4.07
2017-11-14T15:45:55.607Z,4.40
2017-11-14T15:48:24.715Z,4.53
2017-11-14T15:50:53.847Z,4.00
2017-11-14T15:53:23.012Z,4.57
2017-11-14T15:55:52.238Z,3.80
2017-11-14T15:58:21.417Z,4.00
2017-11-14T16:00:50.577Z,3.83
2017-11-14T16:03:19.698Z,4.20
2017-11-14T16:05:48.804Z,3.77
2017-11-14T16:08:17.933Z,3.50
2017-11-14T16:10:50.314Z,3.73
2017-11-14T16:13:19.675Z,3.90
2017-11-14T16:15:48.982Z,4.27
2017-11-14T16:18:18.232Z,4.47
2017-11-14T16:20:47.510Z,3.70
2017-11-14T16:23:16.839Z,4.07
2017-11-14T16:25:45.971Z,3.70
2017-11-14T16:28:15.408Z,3.67
2017-11-14T16:30:44.612Z,4.23
2017-11-14T16:33:13.844Z,3.37
2017-11-14T16:35:43.004Z,5.07
2017-11-14T16:38:12.215Z,4.83
2017-11-14T16:43:19.246Z,4.43
2017-11-14T16:45:48.371Z,5.07
2017-11-14T16:48:17.478Z,4.00
2017-11-14T16:50:46.603Z,5.40
2017-11-14T16:53:15.736Z,3.93
2017-11-14T16:55:44.825Z,3.70
2017-11-14T16:58:13.968Z,4.33
2017-11-14T17:00:43.069Z,4.73
2017-11-14T17:04:58.042Z,5.57
2017-11-14T17:07:27.138Z,5.03
2017-11-14T17:09:56.233Z,4.80
2017-11-14T17:12:25.376Z,5.17
2017-11-14T17:14:54.522Z,4.23
2017-11-14T17:17:23.624Z,4.97
2017-11-14T17:19:52.718Z,5.00
